createdAt,value
2023-12-28T00:00:49.510Z,100.00
2023-12-28T00:06:59.818Z,100.00
2023-12-28T00:12:23.988Z,100.00
2023-12-28T00:18:17.817Z,100.00
2023-12-28T00:23:26.637Z,100.00
2023-12-28T00:28:55.716Z,100.00
2023-12-28T00:34:34.999Z,100.00
2023-12-28T00:39:51.770Z,100.00
2023-12-28T00:45:49.917Z,100.00
2023-12-28T00:51:36.926Z,100.00
2023-12-28T00:56:56.271Z,100.00
2023-12-28T01:02:30.952Z,100.00
2023-12-28T01:07:58.189Z,100.00
2023-12-28T01:13:29.598Z,100.00
2023-12-28T01:18:39.043Z,100.00
2023-12-28T01:23:58.800Z,100.00
2023-12-28T01:29:21.048Z,100.00
2023-12-28T01:34:24.850Z,100.00
2023-12-28T01:40:02.104Z,100.00
2023-12-28T01:45:43.444Z,100.00
2023-12-28T01:51:00.641Z,100.00
2023-12-28T01:56:04.768Z,100.00
2023-12-28T02:01:34.211Z,100.00
2023-12-28T02:07:01.750Z,100.00
2023-12-28T02:12:18.607Z,100.00
2023-12-28T02:17:54.862Z,100.00
2023-12-28T02:23:25.606Z,100.00
2023-12-28T02:28:49.173Z,100.00
2023-12-28T02:34:49.741Z,100.00
2023-12-28T02:40:17.793Z,100.00
2023-12-28T02:45:31.822Z,100.00
2023-12-28T02:51:18.405Z,100.00
2023-12-28T02:56:33.043Z,100.00
2023-12-28T03:01:56.886Z,100.00
2023-12-28T03:07:12.168Z,100.00
2023-12-28T03:13:02.866Z,100.00
2023-12-28T03:18:39.150Z,100.00
2023-12-28T03:23:54.011Z,100.00
2023-12-28T03:29:43.708Z,100.00
2023-12-28T03:35:30.926Z,100.00
2023-12-28T03:41:35.031Z,100.00
2023-12-28T03:47:30.322Z,100.00
2023-12-28T03:53:04.208Z,100.00
2023-12-28T03:58:40.849Z,100.00
2023-12-28T04:03:47.932Z,100.00
2023-12-28T04:09:38.590Z,100.00
2023-12-28T04:15:28.373Z,100.00
2023-12-28T04:21:10.104Z,100.00
2023-12-28T04:27:18.702Z,100.00
2023-12-28T04:32:49.756Z,100.00
2023-12-28T04:38:29.305Z,100.00
2023-12-28T04:44:37.439Z,100.00
2023-12-28T04:50:03.953Z,100.00
2023-12-28T04:55:46.041Z,100.00
2023-12-28T05:00:52.638Z,100.00
2023-12-28T05:06:02.240Z,100.00
2023-12-28T05:11:10.176Z,100.00
2023-12-28T05:16:35.705Z,100.00
2023-12-28T05:22:05.123Z,100.00
2023-12-28T05:27:29.998Z,100.00
2023-12-28T05:33:13.097Z,100.00
2023-12-28T05:38:21.951Z,100.00
2023-12-28T05:43:33.336Z,100.00
2023-12-28T05:48:54.902Z,100.00
2023-12-28T05:54:43.045Z,100.00
2023-12-28T06:00:11.274Z,100.00
2023-12-28T06:05:38.280Z,100.00
2023-12-28T06:10:44.834Z,100.00
2023-12-28T06:15:55.598Z,100.00
2023-12-28T06:21:19.649Z,100.00
2023-12-28T06:26:41.242Z,100.00
2023-12-28T06:32:28.757Z,100.00
2023-12-28T06:38:08.848Z,100.00
2023-12-28T06:44:08.745Z,100.00
2023-12-28T06:49:51.341Z,100.00
2023-12-28T06:55:13.847Z,100.00
2023-12-28T07:00:58.806Z,100.00
2023-12-28T07:06:29.596Z,100.00
2023-12-28T07:12:24.049Z,100.00
2023-12-28T07:17:46.050Z,100.00
2023-12-28T07:22:58.201Z,100.00
2023-12-28T07:28:15.900Z,100.00
2023-12-28T07:34:01.694Z,100.00
2023-12-28T07:39:16.502Z,100.00
2023-12-28T07:44:27.594Z,100.00
2023-12-28T07:50:16.232Z,100.00
2023-12-28T07:56:00.387Z,100.00
2023-12-28T08:01:44.698Z,100.00
2023-12-28T08:06:48.253Z,100.00
2023-12-28T08:12:04.722Z,100.00
2023-12-28T08:17:13.924Z,100.00
2023-12-28T08:22:37.534Z,100.00
2023-12-28T08:28:03.108Z,100.00
2023-12-28T08:33:42.577Z,100.00
2023-12-28T08:38:52.060Z,100.00
2023-12-28T08:43:55.566Z,100.00
2023-12-28T08:49:36.731Z,100.00
2023-12-28T08:55:13.745Z,100.00
2023-12-28T09:00:39.349Z,100.00
2023-12-28T09:05:48.748Z,99.83
2023-12-28T09:11:31.148Z,98.85
2023-12-28T09:16:38.002Z,98.23
2023-12-28T09:22:18.521Z,96.96
2023-12-28T09:27:24.832Z,95.96
2023-12-28T09:32:38.911Z,95.12
2023-12-28T09:37:44.677Z,94.13
2023-12-28T09:43:26.447Z,94.04
2023-12-28T09:48:33.985Z,94.98
2023-12-28T09:53:42.082Z,95.67
2023-12-28T09:58:50.505Z,95.48
2023-12-28T10:03:56.619Z,94.93
2023-12-28T10:09:00.912Z,94.41
2023-12-28T10:14:05.983Z,94.14
2023-12-28T10:19:13.110Z,93.09
2023-12-28T10:24:19.602Z,92.49
2023-12-28T10:29:49.355Z,92.55
2023-12-28T10:35:10.038Z,92.71
2023-12-28T10:40:45.635Z,92.54
2023-12-28T10:45:58.222Z,93.25
2023-12-28T10:51:07.799Z,92.85
2023-12-28T10:56:40.756Z,92.70
2023-12-28T11:01:51.358Z,92.54
2023-12-28T11:07:19.179Z,93.07
2023-12-28T11:12:29.507Z,93.95
2023-12-28T11:17:35.133Z,95.14
2023-12-28T11:23:02.324Z,96.26
2023-12-28T11:28:35.114Z,96.80
2023-12-28T11:34:06.193Z,97.28
2023-12-28T11:39:14.907Z,97.62
2023-12-28T11:44:43.257Z,98.16
2023-12-28T11:49:57.122Z,98.69
2023-12-28T11:55:32.328Z,99.55
2023-12-28T12:00:38.769Z,100.00
2023-12-28T12:05:45.997Z,100.00
2023-12-28T12:11:31.749Z,100.00
2023-12-28T12:16:50.319Z,100.00
2023-12-28T12:21:57.197Z,100.00
2023-12-28T12:27:14.408Z,100.00
2023-12-28T12:32:44.164Z,100.00
2023-12-28T12:38:37.256Z,100.00
2023-12-28T12:44:05.506Z,100.00
2023-12-28T12:50:04.615Z,100.00
2023-12-28T12:55:13.605Z,100.00
2023-12-28T13:00:46.620Z,100.00
2023-12-28T13:06:24.170Z,99.86
2023-12-28T13:11:58.153Z,99.64
2023-12-28T13:17:15.492Z,99.74
2023-12-28T13:22:51.903Z,99.29
2023-12-28T13:28:04.195Z,99.30
2023-12-28T13:33:10.680Z,98.79
2023-12-28T13:38:19.862Z,98.77
2023-12-28T13:44:04.230Z,98.75
2023-12-28T13:49:09.328Z,98.39
2023-12-28T13:54:59.295Z,98.27
2023-12-28T14:00:03.388Z,98.10
2023-12-28T14:05:58.775Z,97.85
2023-12-28T14:11:47.827Z,97.49
2023-12-28T14:16:57.081Z,97.34
2023-12-28T14:22:23.391Z,97.32
2023-12-28T14:27:33.139Z,96.89
2023-12-28T14:32:59.086Z,96.94
2023-12-28T14:38:09.257Z,96.55
2023-12-28T14:43:26.635Z,96.79
2023-12-28T14:48:33.039Z,96.41
2023-12-28T14:54:21.312Z,96.44
2023-12-28T14:59:27.579Z,96.38
2023-12-28T15:04:38.960Z,96.17
2023-12-28T15:10:00.013Z,95.93
2023-12-28T15:15:24.978Z,95.81
2023-12-28T15:21:07.856Z,95.57
2023-12-28T15:26:30.848Z,95.30
2023-12-28T15:32:02.490Z,95.27
2023-12-28T15:37:32.368Z,95.70
2023-12-28T15:43:20.557Z,95.55
2023-12-28T15:48:44.110Z,95.48
2023-12-28T15:54:09.345Z,95.24
2023-12-28T15:59:27.185Z,95.31
2023-12-28T16:04:35.665Z,94.77
2023-12-28T16:10:13.244Z,95.05
2023-12-28T16:16:03.287Z,94.99
2023-12-28T16:22:10.511Z,94.85
2023-12-28T16:28:09.253Z,94.58
2023-12-28T16:34:08.741Z,94.33
2023-12-28T16:40:33.173Z,94.66
2023-12-28T16:45:46.505Z,94.95
2023-12-28T16:51:01.568Z,95.30
2023-12-28T16:56:15.915Z,94.79
2023-12-28T17:01:26.132Z,95.17
2023-12-28T17:06:40.582Z,95.50
2023-12-28T17:12:10.780Z,95.69
2023-12-28T17:17:42.486Z,96.07
2023-12-28T17:22:51.234Z,95.99
2023-12-28T17:28:17.473Z,96.30
2023-12-28T17:33:33.075Z,96.64
2023-12-28T17:38:51.471Z,97.03
2023-12-28T17:44:50.586Z,97.04
2023-12-28T17:50:27.911Z,97.33
2023-12-28T17:55:44.381Z,97.41
2023-12-28T18:01:18.505Z,97.57
2023-12-28T18:06:58.063Z,97.66
2023-12-28T18:12:48.723Z,97.58
2023-12-28T18:18:37.679Z,97.90
2023-12-28T18:24:32.408Z,97.91
2023-12-28T18:29:54.607Z,97.82
2023-12-28T18:35:55.127Z,97.85
2023-12-28T18:41:04.704Z,97.89
2023-12-28T18:46:45.487Z,97.77
2023-12-28T18:52:11.918Z,97.84
2023-12-28T18:57:59.722Z,98.14
2023-12-28T19:03:05.228Z,98.43
2023-12-28T19:08:40.868Z,97.98
2023-12-28T19:14:44.957Z,98.02
2023-12-28T19:20:15.588Z,98.01
2023-12-28T19:25:43.649Z,98.04
2023-12-28T19:31:43.505Z,97.94
2023-12-28T19:37:41.855Z,97.51
2023-12-28T19:43:16.300Z,97.59
2023-12-28T19:49:10.669Z,97.71
2023-12-28T19:55:24.051Z,97.70
2023-12-28T20:01:13.908Z,97.27
2023-12-28T20:07:26.115Z,97.40
2023-12-28T20:12:42.247Z,97.55
2023-12-28T20:18:32.584Z,97.32
2023-12-28T20:24:33.547Z,97.10
2023-12-28T20:30:12.380Z,97.19
2023-12-28T20:35:52.245Z,97.29
2023-12-28T20:41:07.697Z,96.91
2023-12-28T20:46:14.392Z,97.09
2023-12-28T20:51:41.396Z,97.27
2023-12-28T20:57:31.273Z,97.10
2023-12-28T21:03:41.728Z,96.98
2023-12-28T21:09:43.439Z,97.06
2023-12-28T21:15:17.347Z,97.16
2023-12-28T21:21:12.751Z,96.99
2023-12-28T21:26:21.063Z,96.69
2023-12-28T21:31:34.673Z,96.63
2023-12-28T21:36:54.888Z,96.31
2023-12-28T21:42:23.131Z,96.25
2023-12-28T21:48:36.169Z,96.12
2023-12-28T21:54:19.050Z,96.09
2023-12-28T21:59:53.084Z,96.11
2023-12-28T22:06:10.601Z,95.90
2023-12-28T22:12:04.740Z,96.07
2023-12-28T22:17:44.737Z,96.16
2023-12-28T22:23:32.926Z,95.91
2023-12-28T22:29:08.480Z,95.90
2023-12-28T22:34:45.509Z,95.68
2023-12-28T22:40:47.768Z,95.80
2023-12-28T22:46:47.493Z,95.75
2023-12-28T22:52:20.263Z,95.57
2023-12-28T22:57:59.037Z,95.87
2023-12-28T23:03:53.434Z,95.95
2023-12-28T23:09:35.639Z,95.96
2023-12-28T23:15:40.537Z,96.21
2023-12-28T23:21:18.850Z,96.07
2023-12-28T23:27:15.597Z,96.24
2023-12-28T23:32:59.390Z,96.42
2023-12-28T23:38:46.256Z,96.64
2023-12-28T23:45:09.015Z,96.61
2023-12-28T23:51:12.061Z,96.98
2023-12-28T23:57:22.944Z,97.11
